createdAt,value
2022-10-13T00:01:53.135Z,12.60
2022-10-13T00:04:19.375Z,12.53
2022-10-13T00:06:45.599Z,14.53
2022-10-13T00:09:11.926Z,10.77
2022-10-13T00:11:38.138Z,11.93
2022-10-13T00:14:04.947Z,13.80
2022-10-13T00:16:32.394Z,14.77
2022-10-13T00:18:58.792Z,13.70
2022-10-13T00:21:26.248Z,12.27
2022-10-13T00:23:53.252Z,15.73
2022-10-13T00:26:20.320Z,14.03
2022-10-13T00:28:52.063Z,11.83
2022-10-13T00:31:20.266Z,13.17
2022-10-13T00:33:46.514Z,11.67
2022-10-13T00:36:12.800Z,11.30
2022-10-13T00:38:39.034Z,12.83
2022-10-13T00:41:05.515Z,13.00
2022-10-13T00:43:47.086Z,11.50
2022-10-13T00:46:13.607Z,11.20
2022-10-13T00:48:40.394Z,13.90
2022-10-13T00:51:06.723Z,12.80
2022-10-13T00:53:34.383Z,11.23
2022-10-13T00:56:01.002Z,13.07
2022-10-13T00:58:31.459Z,13.23
2022-10-13T01:00:58.160Z,10.93
2022-10-13T01:06:41.476Z,11.07
2022-10-13T01:09:07.683Z,15.47
2022-10-13T01:11:40.273Z,10.90
2022-10-13T01:14:17.754Z,11.23
2022-10-13T01:16:50.064Z,14.00
2022-10-13T01:19:25.462Z,17.43
2022-10-13T01:22:00.830Z,14.17
2022-10-13T01:24:27.133Z,16.03
2022-10-13T01:27:03.684Z,22.10
2022-10-13T01:29:47.384Z,9.70
2022-10-13T01:32:16.952Z,13.03
2022-10-13T01:34:55.239Z,14.90
2022-10-13T01:37:21.493Z,16.87
2022-10-13T01:39:55.133Z,11.43
2022-10-13T01:42:29.514Z,14.50
2022-10-13T01:44:58.834Z,13.33
2022-10-13T01:47:25.728Z,14.87
2022-10-13T01:49:53.282Z,13.40
2022-10-13T01:52:27.123Z,11.47
2022-10-13T01:54:54.397Z,14.70
2022-10-13T01:57:32.385Z,14.77
2022-10-13T02:00:04.017Z,16.33
2022-10-13T02:02:48.906Z,10.93
2022-10-13T02:05:33.819Z,13.87
2022-10-13T02:08:03.205Z,11.93
2022-10-13T02:10:40.340Z,10.70
2022-10-13T02:13:07.864Z,13.77
2022-10-13T02:15:37.166Z,13.17
2022-10-13T02:18:04.457Z,11.93
2022-10-13T02:20:30.891Z,11.43
2022-10-13T02:23:07.110Z,15.23
2022-10-13T02:25:33.510Z,16.23
2022-10-13T02:28:00.385Z,13.43
2022-10-13T02:30:27.914Z,15.37
2022-10-13T02:32:54.514Z,15.37
2022-10-13T02:35:20.751Z,11.87
2022-10-13T02:37:46.983Z,16.60
2022-10-13T02:40:13.468Z,18.17
2022-10-13T02:42:39.709Z,12.90
2022-10-13T02:45:06.269Z,14.10
2022-10-13T02:47:32.463Z,11.70
2022-10-13T02:49:58.682Z,13.63
2022-10-13T02:52:24.980Z,10.87
2022-10-13T02:54:51.730Z,15.03
2022-10-13T02:57:18.287Z,13.87
2022-10-13T02:59:44.590Z,17.63
2022-10-13T03:02:10.831Z,12.13
2022-10-13T03:04:37.047Z,12.77
2022-10-13T03:07:03.323Z,12.67
2022-10-13T03:09:29.632Z,10.73
2022-10-13T03:11:55.886Z,9.90
2022-10-13T03:14:22.117Z,14.47
2022-10-13T03:16:48.335Z,17.50
2022-10-13T03:19:14.585Z,14.50
2022-10-13T03:21:41.835Z,14.23
2022-10-13T03:24:08.165Z,11.83
2022-10-13T03:26:35.084Z,14.00
2022-10-13T03:29:01.320Z,12.87
2022-10-13T03:31:27.728Z,14.83
2022-10-13T03:33:54.404Z,14.80
2022-10-13T03:36:20.651Z,15.47
2022-10-13T03:38:46.865Z,13.03
2022-10-13T03:41:17.357Z,15.50
2022-10-13T03:43:44.410Z,16.27
2022-10-13T03:46:11.674Z,12.83
2022-10-13T03:48:38.176Z,14.70
2022-10-13T03:51:05.266Z,12.70
2022-10-13T03:53:32.075Z,10.60
2022-10-13T03:55:58.306Z,13.57
2022-10-13T03:58:24.990Z,12.97
2022-10-13T04:00:52.062Z,14.37
2022-10-13T04:03:18.296Z,14.17
2022-10-13T04:05:44.532Z,17.77
2022-10-13T04:08:11.532Z,12.33
2022-10-13T04:10:38.071Z,16.63
2022-10-13T04:13:04.294Z,11.27
2022-10-13T04:15:30.550Z,14.43
2022-10-13T04:17:56.815Z,11.50
2022-10-13T04:20:23.024Z,23.83
2022-10-13T04:22:49.247Z,13.90
2022-10-13T04:25:15.487Z,16.70
2022-10-13T04:27:41.843Z,14.50
2022-10-13T04:30:08.396Z,16.47
2022-10-13T04:32:34.660Z,14.77
2022-10-13T04:35:00.921Z,14.67
2022-10-13T04:37:27.199Z,14.50
2022-10-13T04:39:53.395Z,14.60
2022-10-13T04:42:19.795Z,16.53
2022-10-13T04:44:46.142Z,13.70
2022-10-13T04:47:12.420Z,15.17
2022-10-13T04:49:38.631Z,15.87
2022-10-13T04:52:04.986Z,16.93
2022-10-13T04:54:31.342Z,14.67
2022-10-13T04:56:57.727Z,14.20
2022-10-13T04:59:23.970Z,18.93
2022-10-13T05:01:50.220Z,18.17
2022-10-13T05:04:16.682Z,15.03
2022-10-13T05:07:05.168Z,17.07
2022-10-13T05:09:29.125Z,12.83
2022-10-13T05:11:55.389Z,15.70
2022-10-13T05:14:22.180Z,11.33
2022-10-13T05:16:49.042Z,16.57
2022-10-13T05:19:15.683Z,16.17
2022-10-13T05:21:42.004Z,17.17
2022-10-13T05:24:13.457Z,15.00
2022-10-13T05:26:40.032Z,14.27
2022-10-13T05:29:06.279Z,13.43
2022-10-13T05:31:33.435Z,12.33
2022-10-13T05:33:59.887Z,20.63
2022-10-13T05:36:27.839Z,18.93
2022-10-13T05:38:55.388Z,14.53
2022-10-13T05:41:22.379Z,18.93
2022-10-13T05:43:48.650Z,19.60
2022-10-13T05:46:15.375Z,16.37
2022-10-13T05:48:41.611Z,21.63
2022-10-13T05:51:10.981Z,23.67
2022-10-13T05:53:39.256Z,16.43
2022-10-13T05:56:08.519Z,20.07
2022-10-13T05:58:37.519Z,16.20
2022-10-13T06:01:05.728Z,21.47
2022-10-13T06:03:32.176Z,28.20
2022-10-13T06:05:58.436Z,20.87
2022-10-13T06:08:24.721Z,19.80
2022-10-13T06:10:51.062Z,21.70
2022-10-13T06:13:17.297Z,20.40
2022-10-13T06:15:43.508Z,19.43
2022-10-13T06:18:09.781Z,21.93
2022-10-13T06:20:36.306Z,23.07
2022-10-13T06:23:02.802Z,20.43
2022-10-13T06:25:29.399Z,18.37
2022-10-13T06:28:00.074Z,17.40
2022-10-13T06:30:26.566Z,21.93
2022-10-13T06:32:56.094Z,20.00
2022-10-13T06:35:23.403Z,14.73
2022-10-13T06:37:50.237Z,19.13
2022-10-13T06:40:16.764Z,18.13
2022-10-13T06:42:43.084Z,20.50
2022-10-13T06:45:09.547Z,21.83
2022-10-13T06:47:35.820Z,15.77
2022-10-13T06:50:02.056Z,18.77
2022-10-13T06:52:28.352Z,21.33
2022-10-13T06:54:54.562Z,22.77
2022-10-13T06:57:20.855Z,25.70
2022-10-13T06:59:47.070Z,19.47
2022-10-13T07:02:13.296Z,22.23
2022-10-13T07:04:40.617Z,20.97
2022-10-13T07:07:06.922Z,18.87
2022-10-13T07:09:33.197Z,20.97
2022-10-13T07:11:59.440Z,21.90
2022-10-13T07:14:25.672Z,17.20
2022-10-13T07:16:51.890Z,19.17
2022-10-13T07:19:18.145Z,19.00
2022-10-13T07:21:44.561Z,22.43
2022-10-13T07:24:11.640Z,22.47
2022-10-13T07:26:37.873Z,21.37
2022-10-13T07:29:04.186Z,21.43
2022-10-13T07:31:30.452Z,19.07
2022-10-13T07:33:58.500Z,22.00
2022-10-13T07:36:25.090Z,26.57
2022-10-13T07:38:51.382Z,24.73
2022-10-13T07:41:17.760Z,20.23
2022-10-13T07:43:44.077Z,19.87
2022-10-13T07:46:11.860Z,23.37
2022-10-13T07:48:38.145Z,22.90
2022-10-13T07:51:08.466Z,18.87
2022-10-13T07:53:35.465Z,24.13
2022-10-13T07:56:02.371Z,19.13
2022-10-13T07:58:28.713Z,24.20
2022-10-13T08:01:02.132Z,20.73
2022-10-13T08:03:28.481Z,21.37
2022-10-13T08:05:55.052Z,17.47
2022-10-13T08:08:21.386Z,19.57
2022-10-13T08:10:48.906Z,18.40
2022-10-13T08:13:15.282Z,17.23
2022-10-13T08:15:42.234Z,19.77
2022-10-13T08:18:09.394Z,20.17
2022-10-13T08:20:41.223Z,17.67
2022-10-13T08:23:10.291Z,17.93
2022-10-13T08:25:38.561Z,20.83
2022-10-13T08:28:05.282Z,18.63
2022-10-13T08:30:32.167Z,17.83
2022-10-13T08:32:58.571Z,19.23
2022-10-13T08:35:24.920Z,17.63
2022-10-13T08:37:51.147Z,17.50
2022-10-13T08:40:19.376Z,19.40
2022-10-13T08:42:46.081Z,19.73
2022-10-13T08:48:10.353Z,17.83
2022-10-13T08:50:39.239Z,15.23
2022-10-13T08:53:10.856Z,16.27
2022-10-13T08:55:42.650Z,18.00
2022-10-13T08:58:19.080Z,16.77
2022-10-13T09:00:45.289Z,16.77
2022-10-13T09:03:19.544Z,16.47
2022-10-13T09:05:55.221Z,16.13
2022-10-13T09:08:22.244Z,24.47
2022-10-13T09:10:49.357Z,19.63
2022-10-13T09:13:15.628Z,21.27
2022-10-13T09:15:45.720Z,23.37
2022-10-13T09:18:13.057Z,20.13
2022-10-13T09:20:39.376Z,21.43
2022-10-13T09:23:06.880Z,18.90
2022-10-13T09:25:39.627Z,18.00
2022-10-13T09:28:11.376Z,19.33
2022-10-13T09:30:38.946Z,22.53
2022-10-13T09:33:05.167Z,20.47
2022-10-13T09:35:34.323Z,17.37
2022-10-13T09:38:04.115Z,24.97
2022-10-13T09:40:33.512Z,18.23
2022-10-13T09:43:00.843Z,23.43
2022-10-13T09:45:27.652Z,23.97
2022-10-13T09:47:56.030Z,19.83
2022-10-13T09:50:26.932Z,20.50
2022-10-13T09:53:18.427Z,22.30
2022-10-13T09:55:48.508Z,19.40
2022-10-13T09:58:22.283Z,20.73
2022-10-13T10:00:51.094Z,16.03
2022-10-13T10:03:25.974Z,18.80
2022-10-13T10:05:55.440Z,19.10
2022-10-13T10:08:51.002Z,19.77
2022-10-13T10:11:24.041Z,18.87
2022-10-13T10:13:52.598Z,18.70
2022-10-13T10:16:30.207Z,20.17
2022-10-13T10:19:00.016Z,20.83
2022-10-13T10:21:36.159Z,20.40
2022-10-13T10:24:18.203Z,18.23
2022-10-13T10:26:48.480Z,20.90
2022-10-13T10:29:26.176Z,20.07
2022-10-13T10:31:57.291Z,19.20
2022-10-13T10:34:28.495Z,24.23
2022-10-13T10:37:06.147Z,20.87
2022-10-13T10:39:38.051Z,18.03
2022-10-13T10:42:15.820Z,17.40
2022-10-13T10:44:43.465Z,17.03
2022-10-13T10:47:24.961Z,18.50
2022-10-13T10:49:54.081Z,19.90
2022-10-13T10:52:30.650Z,16.50
2022-10-13T10:55:02.202Z,13.70
2022-10-13T10:57:51.188Z,19.13
2022-10-13T11:00:19.809Z,19.47
2022-10-13T11:02:48.829Z,17.23
2022-10-13T11:05:16.087Z,21.17
2022-10-13T11:07:43.007Z,21.60
2022-10-13T11:10:17.544Z,17.40
2022-10-13T11:12:47.956Z,14.37
2022-10-13T11:15:18.408Z,16.70
2022-10-13T11:17:44.643Z,13.80
2022-10-13T11:20:16.896Z,25.80
2022-10-13T11:23:03.109Z,17.17
2022-10-13T11:25:41.420Z,17.67
2022-10-13T11:28:28.152Z,17.20
2022-10-13T11:30:55.444Z,16.07
2022-10-13T11:33:40.326Z,18.80
2022-10-13T11:36:25.327Z,15.93
2022-10-13T11:38:54.655Z,20.27
2022-10-13T11:41:24.923Z,18.77
2022-10-13T11:43:57.090Z,15.30
2022-10-13T11:46:29.851Z,13.70
2022-10-13T11:49:14.912Z,17.23
2022-10-13T11:51:51.174Z,15.87
2022-10-13T11:54:41.355Z,13.43
2022-10-13T11:57:18.016Z,12.93
2022-10-13T11:59:48.071Z,18.70
2022-10-13T12:02:19.379Z,11.50
2022-10-13T12:04:59.396Z,12.63
2022-10-13T12:07:26.860Z,16.07
2022-10-13T12:09:55.124Z,13.53
2022-10-13T12:12:22.629Z,11.60
2022-10-13T12:14:51.082Z,13.77
2022-10-13T12:17:23.466Z,14.03
2022-10-13T12:19:52.190Z,16.10
2022-10-13T12:22:18.460Z,13.83
2022-10-13T12:24:56.109Z,11.63
2022-10-13T12:27:22.590Z,13.27
2022-10-13T12:29:49.116Z,13.17
2022-10-13T12:32:19.122Z,12.10
2022-10-13T12:34:45.405Z,9.50
2022-10-13T12:37:14.834Z,13.67
2022-10-13T12:39:41.121Z,16.63
2022-10-13T12:42:07.942Z,13.10
2022-10-13T12:44:34.326Z,13.97
2022-10-13T12:47:02.071Z,11.23
2022-10-13T12:49:29.758Z,8.33
2022-10-13T12:52:14.315Z,16.20
2022-10-13T12:54:47.110Z,11.97
2022-10-13T12:57:18.033Z,13.10
2022-10-13T12:59:44.285Z,13.00
2022-10-13T13:02:19.572Z,12.80
2022-10-13T13:04:45.943Z,11.47
2022-10-13T13:07:30.284Z,10.83
2022-10-13T13:10:00.328Z,8.37
2022-10-13T13:12:27.788Z,15.57
2022-10-13T13:14:55.206Z,9.00
2022-10-13T13:17:38.894Z,11.83
2022-10-13T13:20:26.999Z,10.30
2022-10-13T13:22:53.750Z,13.30
2022-10-13T13:25:20.028Z,11.33
2022-10-13T13:27:46.278Z,12.37
2022-10-13T13:30:13.547Z,10.47
2022-10-13T13:32:39.883Z,14.63
2022-10-13T13:35:06.602Z,11.53
2022-10-13T13:37:35.894Z,15.20
2022-10-13T13:40:02.156Z,14.97
2022-10-13T13:42:28.693Z,10.53
2022-10-13T13:44:54.985Z,12.23
2022-10-13T13:47:25.417Z,11.43
2022-10-13T13:49:53.528Z,8.90
2022-10-13T13:52:20.684Z,15.83
2022-10-13T13:54:47.116Z,9.97
2022-10-13T13:57:13.883Z,15.93
2022-10-13T13:59:40.394Z,12.60
2022-10-13T14:02:07.612Z,13.80
2022-10-13T14:04:34.417Z,12.47
2022-10-13T14:07:01.521Z,14.30
2022-10-13T14:09:27.857Z,11.27
2022-10-13T14:11:54.090Z,13.33
2022-10-13T14:14:20.294Z,11.97
2022-10-13T14:16:46.557Z,18.77
2022-10-13T14:19:12.851Z,11.57
2022-10-13T14:21:39.123Z,11.33
2022-10-13T14:24:05.655Z,11.73
2022-10-13T14:26:32.049Z,12.50
2022-10-13T14:28:58.367Z,10.77
2022-10-13T14:31:24.702Z,11.83
2022-10-13T14:33:54.154Z,14.27
2022-10-13T14:36:20.718Z,11.77
2022-10-13T14:38:46.979Z,9.83
2022-10-13T14:41:15.122Z,10.70
2022-10-13T14:43:41.328Z,11.47
2022-10-13T14:46:07.569Z,10.87
2022-10-13T14:48:34.762Z,10.47
2022-10-13T14:51:04.033Z,13.93
2022-10-13T14:53:32.001Z,9.00
2022-10-13T14:55:58.208Z,10.83
2022-10-13T14:58:24.457Z,14.47
2022-10-13T15:00:51.891Z,13.57
2022-10-13T15:03:18.136Z,15.17
2022-10-13T15:05:44.414Z,12.03
2022-10-13T15:08:10.679Z,14.20
2022-10-13T15:10:37.008Z,11.97
2022-10-13T15:13:03.276Z,11.73
2022-10-13T15:15:29.539Z,11.37
2022-10-13T15:17:55.842Z,18.40
2022-10-13T15:20:22.052Z,13.33
2022-10-13T15:22:48.495Z,11.77
2022-10-13T15:25:14.738Z,14.50
2022-10-13T15:27:42.274Z,14.70
2022-10-13T15:30:09.530Z,15.87
2022-10-13T15:32:35.734Z,16.33
2022-10-13T15:35:01.991Z,12.93
2022-10-13T15:37:28.209Z,10.20
2022-10-13T15:39:57.334Z,15.07
2022-10-13T15:42:24.102Z,17.57
2022-10-13T15:45:08.882Z,30.13
2022-10-13T15:47:36.450Z,16.10
2022-10-13T15:50:02.747Z,13.50
2022-10-13T15:52:34.485Z,15.33
2022-10-13T15:55:01.304Z,12.00
2022-10-13T15:57:27.596Z,19.13
2022-10-13T15:59:53.798Z,11.23
2022-10-13T16:02:20.313Z,12.60
2022-10-13T16:04:46.818Z,16.07
2022-10-13T16:07:13.046Z,12.00
2022-10-13T16:09:39.252Z,11.37
2022-10-13T16:12:05.535Z,12.57
2022-10-13T16:14:32.009Z,15.70
2022-10-13T16:17:01.239Z,12.43
2022-10-13T16:19:27.478Z,13.90
2022-10-13T16:21:53.741Z,15.70
2022-10-13T16:24:21.514Z,15.03
2022-10-13T16:26:49.842Z,18.50
2022-10-13T16:29:16.124Z,13.40
2022-10-13T16:31:42.451Z,13.00
2022-10-13T16:34:08.689Z,12.40
2022-10-13T16:36:34.962Z,15.57
2022-10-13T16:39:01.422Z,14.47
2022-10-13T16:41:27.668Z,12.10
2022-10-13T16:43:54.883Z,13.50
2022-10-13T16:46:21.383Z,15.20
2022-10-13T16:48:48.199Z,13.90
2022-10-13T16:51:16.556Z,13.97
2022-10-13T16:53:43.200Z,13.30
2022-10-13T16:56:09.660Z,14.23
2022-10-13T16:58:35.956Z,16.57
2022-10-13T17:01:06.217Z,13.93
2022-10-13T17:03:32.501Z,18.30
2022-10-13T17:05:58.755Z,12.47
2022-10-13T17:08:25.005Z,14.30
2022-10-13T17:10:57.853Z,17.93
2022-10-13T17:13:24.643Z,15.30
2022-10-13T17:15:51.971Z,17.03
2022-10-13T17:18:18.214Z,18.30
2022-10-13T17:20:54.663Z,16.00
2022-10-13T17:23:21.188Z,17.20
2022-10-13T17:25:47.611Z,13.77
2022-10-13T17:28:14.055Z,14.47
2022-10-13T17:30:40.439Z,12.33
2022-10-13T17:33:06.748Z,15.33
2022-10-13T17:35:34.454Z,16.33
2022-10-13T17:38:01.000Z,17.70
2022-10-13T17:40:27.201Z,14.73
2022-10-13T17:42:53.416Z,20.77
2022-10-13T17:45:19.736Z,13.30
2022-10-13T17:47:49.615Z,16.53
2022-10-13T17:50:16.373Z,12.27
2022-10-13T17:52:42.762Z,14.73
2022-10-13T17:55:12.189Z,15.10
2022-10-13T17:57:38.403Z,15.73
2022-10-13T18:00:05.547Z,14.80
2022-10-13T18:02:31.807Z,16.97
2022-10-13T18:04:58.263Z,19.20
2022-10-13T18:07:24.574Z,15.57
2022-10-13T18:09:51.924Z,14.87
2022-10-13T18:12:18.607Z,20.13
2022-10-13T18:14:44.836Z,17.87
2022-10-13T18:17:11.081Z,16.10
2022-10-13T18:19:40.280Z,15.87
2022-10-13T18:22:09.189Z,20.63
2022-10-13T18:24:40.587Z,17.30
2022-10-13T18:27:06.874Z,21.97
2022-10-13T18:29:33.090Z,17.00
2022-10-13T18:32:03.820Z,16.77
2022-10-13T18:34:30.042Z,21.00
2022-10-13T18:36:56.265Z,16.50
2022-10-13T18:39:24.939Z,16.43
2022-10-13T18:41:52.188Z,16.80
2022-10-13T18:44:18.925Z,18.50
2022-10-13T18:46:45.478Z,23.23
2022-10-13T18:49:13.177Z,18.93
2022-10-13T18:51:39.696Z,16.50
2022-10-13T18:54:06.531Z,18.20
2022-10-13T18:56:33.360Z,19.07
2022-10-13T18:59:00.823Z,16.33
2022-10-13T19:01:28.585Z,21.83
2022-10-13T19:03:55.253Z,17.83
2022-10-13T19:06:26.840Z,17.77
2022-10-13T19:08:57.048Z,18.53
2022-10-13T19:11:23.337Z,19.97
2022-10-13T19:13:50.068Z,18.77
2022-10-13T19:16:17.521Z,21.60
2022-10-13T19:18:44.270Z,20.97
2022-10-13T19:21:11.598Z,21.43
2022-10-13T19:23:38.342Z,23.57
2022-10-13T19:26:14.974Z,22.93
2022-10-13T19:28:42.082Z,19.70
2022-10-13T19:31:13.019Z,20.60
2022-10-13T19:33:44.235Z,20.00
2022-10-13T19:36:11.382Z,17.63
2022-10-13T19:38:38.969Z,18.77
2022-10-13T19:41:06.960Z,21.23
2022-10-13T19:43:33.660Z,21.73
2022-10-13T19:46:00.083Z,21.10
2022-10-13T19:48:26.675Z,22.50
2022-10-13T19:50:52.988Z,23.67
2022-10-13T19:53:19.281Z,23.13
2022-10-13T19:55:47.279Z,19.03
2022-10-13T19:58:15.890Z,22.13
2022-10-13T20:00:42.696Z,22.03
2022-10-13T20:03:10.350Z,24.23
2022-10-13T20:05:40.947Z,19.73
2022-10-13T20:08:07.973Z,21.53
2022-10-13T20:10:34.750Z,20.03
2022-10-13T20:13:00.982Z,21.33
2022-10-13T20:15:27.206Z,26.90
2022-10-13T20:17:53.434Z,23.47
2022-10-13T20:20:22.359Z,20.63
2022-10-13T20:22:48.758Z,28.20
2022-10-13T20:25:19.423Z,30.43
2022-10-13T20:27:46.183Z,24.40
2022-10-13T20:30:12.576Z,21.83
2022-10-13T20:32:38.936Z,23.37
2022-10-13T20:35:05.511Z,26.87
2022-10-13T20:37:31.740Z,25.57
2022-10-13T20:39:58.063Z,25.10
2022-10-13T20:42:24.296Z,24.60
2022-10-13T20:44:50.519Z,25.23
2022-10-13T20:47:16.853Z,24.43
2022-10-13T20:49:43.380Z,22.10
2022-10-13T20:52:09.762Z,24.77
2022-10-13T20:54:36.002Z,21.33
2022-10-13T20:57:02.292Z,24.67
2022-10-13T20:59:28.506Z,24.07
2022-10-13T21:01:54.728Z,21.47
2022-10-13T21:04:20.948Z,24.33
2022-10-13T21:06:47.325Z,26.40
2022-10-13T21:09:13.542Z,21.97
2022-10-13T21:11:39.865Z,23.20
2022-10-13T21:14:08.432Z,23.10
2022-10-13T21:16:35.492Z,24.97
2022-10-13T21:19:02.091Z,22.70
2022-10-13T21:21:29.899Z,21.93
2022-10-13T21:23:57.148Z,21.50
2022-10-13T21:26:24.420Z,24.60
2022-10-13T21:28:51.272Z,21.37
2022-10-13T21:31:18.623Z,25.47
2022-10-13T21:33:45.088Z,26.43
2022-10-13T21:36:11.372Z,23.80
2022-10-13T21:38:39.396Z,26.27
2022-10-13T21:41:09.755Z,27.40
2022-10-13T21:43:36.065Z,23.37
2022-10-13T21:46:09.428Z,24.40
2022-10-13T21:48:36.049Z,23.47
2022-10-13T21:51:10.199Z,22.53
2022-10-13T21:53:36.635Z,26.27
2022-10-13T21:56:06.998Z,25.10
2022-10-13T21:58:33.672Z,24.30
2022-10-13T22:01:00.475Z,27.83
2022-10-13T22:03:26.844Z,27.87
2022-10-13T22:05:53.069Z,27.93
2022-10-13T22:08:19.331Z,31.07
2022-10-13T22:10:45.588Z,28.03
2022-10-13T22:13:11.819Z,27.40
2022-10-13T22:15:38.156Z,28.30
2022-10-13T22:18:04.534Z,25.07
2022-10-13T22:20:34.781Z,29.73
2022-10-13T22:23:01.212Z,26.90
2022-10-13T22:25:27.477Z,29.43
2022-10-13T22:27:53.742Z,24.93
2022-10-13T22:30:19.999Z,30.43
2022-10-13T22:32:46.247Z,25.93
2022-10-13T22:35:12.474Z,23.70
2022-10-13T22:37:39.402Z,25.70
2022-10-13T22:40:05.903Z,26.73
2022-10-13T22:42:32.123Z,31.20
2022-10-13T22:44:58.319Z,27.07
2022-10-13T22:47:26.509Z,28.50
2022-10-13T22:49:52.778Z,26.47
2022-10-13T22:52:19.048Z,26.60
2022-10-13T22:54:45.336Z,27.20
2022-10-13T22:57:11.554Z,30.80
2022-10-13T22:59:37.805Z,23.43
2022-10-13T23:02:04.067Z,26.80
2022-10-13T23:04:30.290Z,27.17
2022-10-13T23:06:56.558Z,25.60
2022-10-13T23:09:22.760Z,34.03
2022-10-13T23:11:48.997Z,28.33
2022-10-13T23:14:15.251Z,27.23
2022-10-13T23:16:41.472Z,26.17
2022-10-13T23:19:07.694Z,24.90
2022-10-13T23:21:33.951Z,23.43
2022-10-13T23:24:01.398Z,25.97
2022-10-13T23:26:28.080Z,26.20
2022-10-13T23:28:57.847Z,23.70
2022-10-13T23:31:24.502Z,31.07
2022-10-13T23:33:51.076Z,27.33
2022-10-13T23:36:19.204Z,27.07
2022-10-13T23:38:45.474Z,25.13
2022-10-13T23:41:13.222Z,23.93
2022-10-13T23:43:40.152Z,28.13
2022-10-13T23:46:07.181Z,29.43
2022-10-13T23:48:33.463Z,27.13
2022-10-13T23:51:05.043Z,26.47
2022-10-13T23:53:33.436Z,26.10
2022-10-13T23:56:01.053Z,25.20
2022-10-13T23:58:27.258Z,25.73
